Punta Gorda, FL

10:08 AM EDT em 30 de Março de 2015 (GMT -0400)
Charlotte County | | Change Station
CLOSE
Current Station
Aeroporto
Location: Punta Gorda,
Altitude: 26 ft
Estações Meteorológicas Próximas

Elev 26 ft 26.92 °N, 81.99 °W | Updated 15 minutes ago

Céu Limpo
Céu Limpo
64 °F
Aparente 64 °F
N
5
Vento Variável Vento de NE

Hoje
Máxima -- | Mínima -- °F
--% Possibilidade de Precip.
Ontem
Máxima -- | Mínima -- °F
Precip. -- pol
7:21 AM 7:44 PM
Lua crescente, 80% visible
Pressão 30.31 pol
Visibilidade 10.0 milhas
Nuvens Céu Limpo
Ponto de Orvalho 51 °F
Humidade 63%
Chuva 0.00 pol
Altura de Neve Não disponível
UV 4 em vez de 12
Pólen 10.50 em vez de 12
Qualidade do Ar Não disponível
Flu Activity Não disponível
METAR KPGD 301353Z 04004KT 10SM CLR 18/11 A3031 RMK AO2 SLP262 T01780106

More Conditions Fewer Conditions

Pressão 30.31 pol
Visibilidade 10.0 milhas
Nuvens Céu Limpo
Ponto de Orvalho 51 °F
Humidade 63%
Chuva 0.00 pol
Altura de Neve Não disponível
UV 4 em vez de 12
Pólen 10.50 em vez de 12
Qualidade do Ar Não disponível
Flu Activity Não disponível
METAR KPGD 301353Z 04004KT 10SM CLR 18/11 A3031 RMK AO2 SLP262 T01780106

More Conditions Fewer Conditions

10-Day Weather Forecast

Almanac

Astronomia

Mar. 30, 2015 Nascer Pôr
Hora atual
Crepúsculo civil
Crepúsculo náutico
Crepúsculo astronómico
Lua
Comprimento da luz visível
Duração do Dia
Tomorrow will be .
, % of the Moon is Illuminated

Extremos de Hoje

situação na parte mais alta situação na parte mais baixa

Community

WunderPhotos

Upload Photos

1,809,502 fotografias inseridas!

WunderBlogs® & News

Nearby

Qualidade do Ar

  Qualidade do Ar Índice da Q.A. Poluente
Not available.

Altura da Neve

Estação altura Altitude

Actividade Sísmisca

Cidade Distância Mag. Hora & Data
Mínima magnitude apresentada é 2.5.

Temperaturas das Águas Costeiras

Local Temperatura

Stations

Estações Meteorológicas Próximas

Localização da Estação Temp. Sensação Térmica Ponto de Orvalho Humidade Vento Precip. Elev Actualizado Tipo